sensor_id;sensor_type;location;lat;lon;timestamp;pressure;altitude;pressure_sealevel;temperature;humidity
64551;BME280;74341;44.510;-123.270;2024-01-10T00:02:07;100924.03;;;4.71;96.47
64551;BME280;74341;44.510;-123.270;2024-01-10T00:04:33;100923.81;;;4.63;96.53
64551;BME280;74341;44.510;-123.270;2024-01-10T00:06:59;100927.19;;;4.55;97.08
64551;BME280;74341;44.510;-123.270;2024-01-10T00:09:25;100928.84;;;4.46;96.99
64551;BME280;74341;44.510;-123.270;2024-01-10T00:11:51;100921.22;;;4.40;97.26
64551;BME280;74341;44.510;-123.270;2024-01-10T00:14:18;100903.66;;;4.34;97.70
64551;BME280;74341;44.510;-123.270;2024-01-10T00:16:44;100899.66;;;4.29;97.80
64551;BME280;74341;44.510;-123.270;2024-01-10T00:19:10;100893.88;;;4.22;97.83
64551;BME280;74341;44.510;-123.270;2024-01-10T00:21:37;100888.88;;;4.17;98.11
64551;BME280;74341;44.510;-123.270;2024-01-10T00:24:03;100873.03;;;4.13;97.87
64551;BME280;74341;44.510;-123.270;2024-01-10T00:26:30;100878.56;;;4.11;97.97
64551;BME280;74341;44.510;-123.270;2024-01-10T00:28:56;100895.53;;;4.13;97.83
64551;BME280;74341;44.510;-123.270;2024-01-10T00:31:22;100905.50;;;4.13;97.91
64551;BME280;74341;44.510;-123.270;2024-01-10T00:33:48;100907.19;;;4.14;97.87
64551;BME280;74341;44.510;-123.270;2024-01-10T00:36:15;100907.06;;;4.15;97.34
64551;BME280;74341;44.510;-123.270;2024-01-10T00:38:41;100915.06;;;4.17;97.24
64551;BME280;74341;44.510;-123.270;2024-01-10T00:41:07;100933.88;;;4.18;97.55
64551;BME280;74341;44.510;-123.270;2024-01-10T00:43:33;100926.63;;;4.19;97.55
64551;BME280;74341;44.510;-123.270;2024-01-10T00:45:59;100939.19;;;4.20;97.89
64551;BME280;74341;44.510;-123.270;2024-01-10T00:48:26;100933.88;;;4.18;98.18
64551;BME280;74341;44.510;-123.270;2024-01-10T00:50:52;100933.88;;;4.18;98.25
64551;BME280;74341;44.510;-123.270;2024-01-10T00:53:18;100942.13;;;4.17;98.76
64551;BME280;74341;44.510;-123.270;2024-01-10T00:55:44;100921.38;;;4.17;99.04
64551;BME280;74341;44.510;-123.270;2024-01-10T00:58:11;100913.09;;;4.19;98.81
64551;BME280;74341;44.510;-123.270;2024-01-10T01:00:37;100901.41;;;4.18;99.02
64551;BME280;74341;44.510;-123.270;2024-01-10T01:03:03;100899.56;;;4.19;99.42
64551;BME280;74341;44.510;-123.270;2024-01-10T01:05:30;100881.50;;;4.19;99.83
64551;BME280;74341;44.510;-123.270;2024-01-10T01:07:56;100880.59;;;4.19;99.66
64551;BME280;74341;44.510;-123.270;2024-01-10T01:10:22;100877.19;;;4.17;100.00
64551;BME280;74341;44.510;-123.270;2024-01-10T01:12:48;100876.59;;;4.13;100.00
64551;BME280;74341;44.510;-123.270;2024-01-10T01:15:18;100864.06;;;4.12;100.00
64551;BME280;74341;44.510;-123.270;2024-01-10T01:17:44;100867.88;;;4.10;100.00
64551;BME280;74341;44.510;-123.270;2024-01-10T01:20:10;100861.75;;;4.08;100.00
64551;BME280;74341;44.510;-123.270;2024-01-10T01:22:37;100851.28;;;4.03;100.00
64551;BME280;74341;44.510;-123.270;2024-01-10T01:25:03;100840.03;;;3.98;100.00
64551;BME280;74341;44.510;-123.270;2024-01-10T01:27:30;100841.25;;;3.94;100.00
64551;BME280;74341;44.510;-123.270;2024-01-10T01:29:56;100834.28;;;3.91;100.00
64551;BME280;74341;44.510;-123.270;2024-01-10T01:32:22;100824.69;;;3.87;100.00
64551;BME280;74341;44.510;-123.270;2024-01-10T01:34:49;100813.13;;;3.85;100.00
64551;BME280;74341;44.510;-123.270;2024-01-10T01:37:15;100798.91;;;3.83;100.00
64551;BME280;74341;44.510;-123.270;2024-01-10T01:39:41;100784.78;;;3.79;100.00
64551;BME280;74341;44.510;-123.270;2024-01-10T01:42:08;100789.34;;;3.79;100.00
64551;BME280;74341;44.510;-123.270;2024-01-10T01:44:34;100798.41;;;3.78;100.00
64551;BME280;74341;44.510;-123.270;2024-01-10T01:47:01;100787.72;;;3.76;100.00
64551;BME280;74341;44.510;-123.270;2024-01-10T01:49:29;100776.78;;;3.78;100.00
64551;BME280;74341;44.510;-123.270;2024-01-10T01:51:55;100768.66;;;3.78;100.00
64551;BME280;74341;44.510;-123.270;2024-01-10T01:54:22;100758.88;;;3.77;100.00
64551;BME280;74341;44.510;-123.270;2024-01-10T01:56:49;100757.13;;;3.76;100.00
64551;BME280;74341;44.510;-123.270;2024-01-10T01:59:15;100743.47;;;3.77;100.00
64551;BME280;74341;44.510;-123.270;2024-01-10T02:01:42;100724.56;;;3.77;100.00
64551;BME280;74341;44.510;-123.270;2024-01-10T02:04:08;100720.13;;;3.76;100.00
64551;BME280;74341;44.510;-123.270;2024-01-10T02:06:34;100711.03;;;3.77;100.00
64551;BME280;74341;44.510;-123.270;2024-01-10T02:09:01;100712.88;;;3.77;100.00
64551;BME280;74341;44.510;-123.270;2024-01-10T02:11:29;100695.78;;;3.76;100.00
64551;BME280;74341;44.510;-123.270;2024-01-10T02:13:58;100699.38;;;3.77;100.00
64551;BME280;74341;44.510;-123.270;2024-01-10T02:16:24;100699.25;;;3.78;100.00
64551;BME280;74341;44.510;-123.270;2024-01-10T02:18:51;100701.94;;;3.78;100.00
64551;BME280;74341;44.510;-123.270;2024-01-10T02:21:21;100680.31;;;3.78;100.00
64551;BME280;74341;44.510;-123.270;2024-01-10T02:23:47;100681.16;;;3.79;100.00
64551;BME280;74341;44.510;-123.270;2024-01-10T02:26:15;100668.47;;;3.79;100.00
64551;BME280;74341;44.510;-123.270;2024-01-10T02:28:41;100660.38;;;3.79;100.00
64551;BME280;74341;44.510;-123.270;2024-01-10T02:31:07;100659.41;;;3.80;100.00
64551;BME280;74341;44.510;-123.270;2024-01-10T02:33:34;100638.88;;;3.78;100.00
64551;BME280;74341;44.510;-123.270;2024-01-10T02:36:00;100630.63;;;3.79;100.00
64551;BME280;74341;44.510;-123.270;2024-01-10T02:38:26;100628.06;;;3.78;100.00
64551;BME280;74341;44.510;-123.270;2024-01-10T02:40:53;100644.41;;;3.76;100.00
64551;BME280;74341;44.510;-123.270;2024-01-10T02:43:22;100636.44;;;3.75;100.00
64551;BME280;74341;44.510;-123.270;2024-01-10T02:45:48;100629.56;;;3.71;100.00
64551;BME280;74341;44.510;-123.270;2024-01-10T02:48:14;100624.72;;;3.65;100.00
64551;BME280;74341;44.510;-123.270;2024-01-10T02:50:40;100625.69;;;3.64;100.00
64551;BME280;74341;44.510;-123.270;2024-01-10T02:53:07;100615.72;;;3.64;100.00
64551;BME280;74341;44.510;-123.270;2024-01-10T02:55:33;100598.91;;;3.60;100.00
64551;BME280;74341;44.510;-123.270;2024-01-10T02:57:59;100589.25;;;3.58;100.00
64551;BME280;74341;44.510;-123.270;2024-01-10T03:00:25;100570.56;;;3.55;100.00
64551;BME280;74341;44.510;-123.270;2024-01-10T03:02:52;100568.88;;;3.54;100.00
64551;BME280;74341;44.510;-123.270;2024-01-10T03:05:18;100564.47;;;3.53;100.00
64551;BME280;74341;44.510;-123.270;2024-01-10T03:07:46;100560.06;;;3.52;100.00
64551;BME280;74341;44.510;-123.270;2024-01-10T03:10:14;100550.22;;;3.51;100.00
64551;BME280;74341;44.510;-123.270;2024-01-10T03:12:40;100536.00;;;3.49;100.00
64551;BME280;74341;44.510;-123.270;2024-01-10T03:15:07;100524.47;;;3.47;100.00
64551;BME280;74341;44.510;-123.270;2024-01-10T03:17:33;100536.00;;;3.49;100.00
64551;BME280;74341;44.510;-123.270;2024-01-10T03:20:01;100533.28;;;3.49;100.00
64551;BME280;74341;44.510;-123.270;2024-01-10T03:22:30;100519.78;;;3.49;100.00
64551;BME280;74341;44.510;-123.270;2024-01-10T03:24:56;100520.16;;;3.44;100.00
64551;BME280;74341;44.510;-123.270;2024-01-10T03:27:22;100500.41;;;3.43;100.00
64551;BME280;74341;44.510;-123.270;2024-01-10T03:29:49;100483.72;;;3.38;100.00
64551;BME280;74341;44.510;-123.270;2024-01-10T03:32:15;100493.94;;;3.35;100.00
64551;BME280;74341;44.510;-123.270;2024-01-10T03:34:41;100473.31;;;3.34;100.00
64551;BME280;74341;44.510;-123.270;2024-01-10T03:37:08;100465.75;;;3.28;100.00
64551;BME280;74341;44.510;-123.270;2024-01-10T03:39:34;100457.91;;;3.24;100.00
64551;BME280;74341;44.510;-123.270;2024-01-10T03:42:00;100468.97;;;3.21;100.00
64551;BME280;74341;44.510;-123.270;2024-01-10T03:44:27;100442.25;;;3.18;100.00
64551;BME280;74341;44.510;-123.270;2024-01-10T03:46:53;100418.94;;;3.17;100.00
64551;BME280;74341;44.510;-123.270;2024-01-10T03:49:20;100418.94;;;3.17;100.00
64551;BME280;74341;44.510;-123.270;2024-01-10T03:51:46;100415.25;;;3.18;100.00
64551;BME280;74341;44.510;-123.270;2024-01-10T03:54:13;100414.38;;;3.18;100.00
64551;BME280;74341;44.510;-123.270;2024-01-10T03:56:39;100409.13;;;3.16;100.00
64551;BME280;74341;44.510;-123.270;2024-01-10T03:59:05;100386.63;;;3.16;100.00
64551;BME280;74341;44.510;-123.270;2024-01-10T04:01:31;100376.72;;;3.16;100.00
64551;BME280;74341;44.510;-123.270;2024-01-10T04:03:58;100373.84;;;3.18;100.00
64551;BME280;74341;44.510;-123.270;2024-01-10T04:06:24;100373.13;;;3.16;100.00
64551;BME280;74341;44.510;-123.270;2024-01-10T04:08:50;100374.00;;;3.16;100.00
64551;BME280;74341;44.510;-123.270;2024-01-10T04:11:16;100366.63;;;3.18;100.00
64551;BME280;74341;44.510;-123.270;2024-01-10T04:13:43;100360.34;;;3.18;100.00
64551;BME280;74341;44.510;-123.270;2024-01-10T04:16:10;100330.63;;;3.18;100.00
64551;BME280;74341;44.510;-123.270;2024-01-10T04:18:36;100314.00;;;3.13;100.00
64551;BME280;74341;44.510;-123.270;2024-01-10T04:21:05;100295.09;;;3.13;100.00
64551;BME280;74341;44.510;-123.270;2024-01-10T04:23:32;100280.84;;;3.11;100.00
64551;BME280;74341;44.510;-123.270;2024-01-10T04:26:01;100244.44;;;3.05;100.00
64551;BME280;74341;44.510;-123.270;2024-01-10T04:28:28;100187.00;;;3.03;100.00
64551;BME280;74341;44.510;-123.270;2024-01-10T04:30:55;100161.56;;;2.96;100.00
64551;BME280;74341;44.510;-123.270;2024-01-10T04:33:24;100165.41;;;2.93;100.00
64551;BME280;74341;44.510;-123.270;2024-01-10T04:35:50;100156.31;;;2.84;100.00
64551;BME280;74341;44.510;-123.270;2024-01-10T04:38:17;100141.22;;;2.82;100.00
64551;BME280;74341;44.510;-123.270;2024-01-10T04:40:43;100152.03;;;2.82;100.00
64551;BME280;74341;44.510;-123.270;2024-01-10T04:43:09;100144.19;;;2.79;100.00
64551;BME280;74341;44.510;-123.270;2024-01-10T04:45:35;100133.56;;;2.77;100.00
64551;BME280;74341;44.510;-123.270;2024-01-10T04:48:02;100133.97;;;2.73;100.00
64551;BME280;74341;44.510;-123.270;2024-01-10T04:50:28;100121.31;;;2.73;100.00
64551;BME280;74341;44.510;-123.270;2024-01-10T04:52:55;100099.84;;;2.72;100.00
64551;BME280;74341;44.510;-123.270;2024-01-10T04:55:21;100090.78;;;2.73;100.00
64551;BME280;74341;44.510;-123.270;2024-01-10T04:57:48;100072.28;;;2.68;100.00
64551;BME280;74341;44.510;-123.270;2024-01-10T05:00:14;100045.47;;;2.66;100.00
64551;BME280;74341;44.510;-123.270;2024-01-10T05:02:44;100032.69;;;2.69;100.00
64551;BME280;74341;44.510;-123.270;2024-01-10T05:05:10;100009.50;;;2.66;100.00
64551;BME280;74341;44.510;-123.270;2024-01-10T05:07:37;100000.84;;;2.62;100.00
64551;BME280;74341;44.510;-123.270;2024-01-10T05:10:04;100005.25;;;2.63;100.00
64551;BME280;74341;44.510;-123.270;2024-01-10T05:12:30;100005.41;;;2.62;100.00
64551;BME280;74341;44.510;-123.270;2024-01-10T05:14:57;99991.34;;;2.58;100.00
64551;BME280;74341;44.510;-123.270;2024-01-10T05:17:23;99984.09;;;2.59;100.00
64551;BME280;74341;44.510;-123.270;2024-01-10T05:19:50;99983.94;;;2.60;100.00
64551;BME280;74341;44.510;-123.270;2024-01-10T05:22:16;99971.75;;;2.56;100.00
64551;BME280;74341;44.510;-123.270;2024-01-10T05:24:43;99952.28;;;2.53;100.00
64551;BME280;74341;44.510;-123.270;2024-01-10T05:27:09;99947.72;;;2.53;100.00
64551;BME280;74341;44.510;-123.270;2024-01-10T05:29:36;99963.06;;;2.53;100.00
64551;BME280;74341;44.510;-123.270;2024-01-10T05:32:03;99945.03;;;2.53;100.00
64551;BME280;74341;44.510;-123.270;2024-01-10T05:34:30;99911.81;;;2.53;100.00
64551;BME280;74341;44.510;-123.270;2024-01-10T05:36:56;99894.75;;;2.52;100.00
64551;BME280;74341;44.510;-123.270;2024-01-10T05:39:23;99880.97;;;2.55;100.00
64551;BME280;74341;44.510;-123.270;2024-01-10T05:41:49;99874.72;;;2.55;100.00
64551;BME280;74341;44.510;-123.270;2024-01-10T05:44:16;99856.97;;;2.52;100.00
64551;BME280;74341;44.510;-123.270;2024-01-10T05:46:42;99831.28;;;2.48;100.00
64551;BME280;74341;44.510;-123.270;2024-01-10T05:49:11;99835.84;;;2.47;100.00
64551;BME280;74341;44.510;-123.270;2024-01-10T05:51:38;99813.97;;;2.51;100.00
64551;BME280;74341;44.510;-123.270;2024-01-10T05:54:04;99786.97;;;2.51;100.00
64551;BME280;74341;44.510;-123.270;2024-01-10T05:56:30;99778.88;;;2.51;100.00
64551;BME280;74341;44.510;-123.270;2024-01-10T05:58:57;99770.78;;;2.51;100.00
64551;BME280;74341;44.510;-123.270;2024-01-10T06:01:23;99758.97;;;2.52;100.00
64551;BME280;74341;44.510;-123.270;2024-01-10T06:03:49;99738.41;;;2.51;100.00
64551;BME280;74341;44.510;-123.270;2024-01-10T06:06:16;99763.25;;;2.54;100.00
64551;BME280;74341;44.510;-123.270;2024-01-10T06:08:42;99788.25;;;2.56;100.00
64551;BME280;74341;44.510;-123.270;2024-01-10T06:11:09;99797.19;;;2.57;100.00
64551;BME280;74341;44.510;-123.270;2024-01-10T06:13:36;99809.69;;;2.58;100.00
64551;BME280;74341;44.510;-123.270;2024-01-10T06:16:03;99817.78;;;2.58;100.00
64551;BME280;74341;44.510;-123.270;2024-01-10T06:18:30;99849.72;;;2.62;100.00
64551;BME280;74341;44.510;-123.270;2024-01-10T06:20:56;99837.66;;;2.66;100.00
64551;BME280;74341;44.510;-123.270;2024-01-10T06:23:23;99874.41;;;2.67;100.00
64551;BME280;74341;44.510;-123.270;2024-01-10T06:25:50;99902.81;;;2.72;100.00
64551;BME280;74341;44.510;-123.270;2024-01-10T06:28:16;99944.03;;;2.74;100.00
64551;BME280;74341;44.510;-123.270;2024-01-10T06:30:43;99911.47;;;2.75;100.00
64551;BME280;74341;44.510;-123.270;2024-01-10T06:33:09;99913.19;;;2.76;100.00
64551;BME280;74341;44.510;-123.270;2024-01-10T06:35:35;99941.72;;;2.79;100.00
64551;BME280;74341;44.510;-123.270;2024-01-10T06:38:02;99932.78;;;2.88;100.00
64551;BME280;74341;44.510;-123.270;2024-01-10T06:40:29;99947.09;;;2.98;100.00
64551;BME280;74341;44.510;-123.270;2024-01-10T06:42:56;99961.00;;;3.13;100.00
64551;BME280;74341;44.510;-123.270;2024-01-10T06:45:22;99977.56;;;3.38;100.00
64551;BME280;74341;44.510;-123.270;2024-01-10T06:47:48;99990.94;;;3.67;100.00
64551;BME280;74341;44.510;-123.270;2024-01-10T06:50:15;99980.56;;;3.90;100.00
64551;BME280;74341;44.510;-123.270;2024-01-10T06:52:41;99983.16;;;4.10;100.00
64551;BME280;74341;44.510;-123.270;2024-01-10T06:55:08;99975.41;;;4.25;100.00
64551;BME280;74341;44.510;-123.270;2024-01-10T06:57:34;99977.31;;;4.32;100.00
64551;BME280;74341;44.510;-123.270;2024-01-10T07:00:00;99990.38;;;4.37;100.00
64551;BME280;74341;44.510;-123.270;2024-01-10T07:02:29;99991.16;;;4.47;100.00
64551;BME280;74341;44.510;-123.270;2024-01-10T07:04:55;99994.06;;;4.64;100.00
64551;BME280;74341;44.510;-123.270;2024-01-10T07:07:22;100007.34;;;4.75;100.00
64551;BME280;74341;44.510;-123.270;2024-01-10T07:09:48;100013.16;;;4.80;100.00
64551;BME280;74341;44.510;-123.270;2024-01-10T07:12:15;100026.84;;;4.79;100.00
64551;BME280;74341;44.510;-123.270;2024-01-10T07:14:41;100023.59;;;4.75;100.00
64551;BME280;74341;44.510;-123.270;2024-01-10T07:17:08;100025.06;;;4.69;100.00
64551;BME280;74341;44.510;-123.270;2024-01-10T07:19:34;100030.09;;;4.64;100.00
64551;BME280;74341;44.510;-123.270;2024-01-10T07:22:00;100030.69;;;4.58;100.00
64551;BME280;74341;44.510;-123.270;2024-01-10T07:24:27;100032.00;;;4.54;100.00
64551;BME280;74341;44.510;-123.270;2024-01-10T07:26:53;100030.63;;;4.50;100.00
64551;BME280;74341;44.510;-123.270;2024-01-10T07:29:19;100034.63;;;4.46;100.00
64551;BME280;74341;44.510;-123.270;2024-01-10T07:31:46;100042.06;;;4.44;100.00
64551;BME280;74341;44.510;-123.270;2024-01-10T07:34:12;100052.19;;;4.42;100.00
64551;BME280;74341;44.510;-123.270;2024-01-10T07:36:42;100046.22;;;4.38;100.00
64551;BME280;74341;44.510;-123.270;2024-01-10T07:39:08;100048.53;;;4.33;100.00
64551;BME280;74341;44.510;-123.270;2024-01-10T07:41:35;100031.91;;;4.28;100.00
64551;BME280;74341;44.510;-123.270;2024-01-10T07:44:01;100035.06;;;4.23;100.00
64551;BME280;74341;44.510;-123.270;2024-01-10T07:46:29;100037.09;;;4.21;100.00
64551;BME280;74341;44.510;-123.270;2024-01-10T07:48:55;100033.84;;;4.17;100.00
64551;BME280;74341;44.510;-123.270;2024-01-10T07:51:21;100044.81;;;4.16;100.00
64551;BME280;74341;44.510;-123.270;2024-01-10T07:53:48;100040.22;;;4.16;100.00
64551;BME280;74341;44.510;-123.270;2024-01-10T07:56:14;100043.38;;;4.12;100.00
64551;BME280;74341;44.510;-123.270;2024-01-10T07:58:40;100035.59;;;4.09;100.00
64551;BME280;74341;44.510;-123.270;2024-01-10T08:01:07;100037.41;;;4.08;100.00
64551;BME280;74341;44.510;-123.270;2024-01-10T08:03:35;100044.00;;;4.06;100.00
64551;BME280;74341;44.510;-123.270;2024-01-10T08:06:02;100055.66;;;4.06;100.00
64551;BME280;74341;44.510;-123.270;2024-01-10T08:08:29;100065.50;;;4.07;100.00
64551;BME280;74341;44.510;-123.270;2024-01-10T08:10:56;100066.47;;;4.06;100.00
64551;BME280;74341;44.510;-123.270;2024-01-10T08:13:22;100052.13;;;4.06;100.00
64551;BME280;74341;44.510;-123.270;2024-01-10T08:15:48;100062.94;;;4.06;100.00
64551;BME280;74341;44.510;-123.270;2024-01-10T08:18:15;100059.53;;;4.04;100.00
64551;BME280;74341;44.510;-123.270;2024-01-10T08:20:41;100054.25;;;4.02;100.00
64551;BME280;74341;44.510;-123.270;2024-01-10T08:23:08;100050.00;;;3.99;100.00
64551;BME280;74341;44.510;-123.270;2024-01-10T08:25:34;100058.44;;;3.96;100.00
64551;BME280;74341;44.510;-123.270;2024-01-10T08:28:01;100068.38;;;3.96;100.00
64551;BME280;74341;44.510;-123.270;2024-01-10T08:30:27;100063.13;;;3.94;100.00
64551;BME280;74341;44.510;-123.270;2024-01-10T08:32:53;100071.41;;;3.93;100.00
64551;BME280;74341;44.510;-123.270;2024-01-10T08:35:20;100092.31;;;3.91;100.00
64551;BME280;74341;44.510;-123.270;2024-01-10T08:37:46;100102.41;;;3.89;100.00
64551;BME280;74341;44.510;-123.270;2024-01-10T08:40:12;100097.34;;;3.86;100.00
64551;BME280;74341;44.510;-123.270;2024-01-10T08:42:41;100099.47;;;3.82;100.00
64551;BME280;74341;44.510;-123.270;2024-01-10T08:45:08;100108.88;;;3.78;100.00
64551;BME280;74341;44.510;-123.270;2024-01-10T08:47:37;100128.25;;;3.73;100.00
64551;BME280;74341;44.510;-123.270;2024-01-10T08:50:04;100135.78;;;3.70;100.00
64551;BME280;74341;44.510;-123.270;2024-01-10T08:52:34;100136.09;;;3.67;100.00
64551;BME280;74341;44.510;-123.270;2024-01-10T08:55:01;100159.84;;;3.63;100.00
64551;BME280;74341;44.510;-123.270;2024-01-10T08:57:27;100156.44;;;3.61;100.00
64551;BME280;74341;44.510;-123.270;2024-01-10T08:59:54;100143.78;;;3.61;100.00
64551;BME280;74341;44.510;-123.270;2024-01-10T09:02:20;100137.53;;;3.61;100.00
64551;BME280;74341;44.510;-123.270;2024-01-10T09:04:49;100114.47;;;3.57;100.00
64551;BME280;74341;44.510;-123.270;2024-01-10T09:07:16;100095.53;;;3.57;100.00
64551;BME280;74341;44.510;-123.270;2024-01-10T09:09:44;100122.56;;;3.57;100.00
64551;BME280;74341;44.510;-123.270;2024-01-10T09:12:10;100110.22;;;3.54;100.00
64551;BME280;74341;44.510;-123.270;2024-01-10T09:14:37;100103.09;;;3.53;100.00
64551;BME280;74341;44.510;-123.270;2024-01-10T09:17:03;100105.09;;;3.51;100.00
64551;BME280;74341;44.510;-123.270;2024-01-10T09:19:30;100106.94;;;3.51;100.00
64551;BME280;74341;44.510;-123.270;2024-01-10T09:21:57;100108.06;;;3.48;100.00
64551;BME280;74341;44.510;-123.270;2024-01-10T09:24:24;100119.75;;;3.49;100.00
64551;BME280;74341;44.510;-123.270;2024-01-10T09:26:52;100127.72;;;3.50;100.00
64551;BME280;74341;44.510;-123.270;2024-01-10T09:29:19;100135.84;;;3.50;100.00
64551;BME280;74341;44.510;-123.270;2024-01-10T09:31:45;100136.41;;;3.54;100.00
64551;BME280;74341;44.510;-123.270;2024-01-10T09:34:12;100137.38;;;3.53;100.00
64551;BME280;74341;44.510;-123.270;2024-01-10T09:36:38;100128.28;;;3.54;100.00
64551;BME280;74341;44.510;-123.270;2024-01-10T09:39:04;100135.38;;;3.55;100.00
64551;BME280;74341;44.510;-123.270;2024-01-10T09:41:43;100119.47;;;3.52;100.00
64551;BME280;74341;44.510;-123.270;2024-01-10T09:44:12;100132.41;;;3.48;100.00
64551;BME280;74341;44.510;-123.270;2024-01-10T09:46:41;100153.75;;;3.41;100.00
64551;BME280;74341;44.510;-123.270;2024-01-10T09:49:09;100166.00;;;3.36;100.00
64551;BME280;74341;44.510;-123.270;2024-01-10T09:51:37;100171.41;;;3.36;100.00
64551;BME280;74341;44.510;-123.270;2024-01-10T09:54:03;100170.53;;;3.35;100.00
64551;BME280;74341;44.510;-123.270;2024-01-10T09:56:32;100168.84;;;3.34;100.00
64551;BME280;74341;44.510;-123.270;2024-01-10T09:59:01;100164.56;;;3.32;100.00
64551;BME280;74341;44.510;-123.270;2024-01-10T10:01:31;100147.66;;;3.30;100.00
64551;BME280;74341;44.510;-123.270;2024-01-10T10:03:58;100161.44;;;3.27;100.00
64551;BME280;74341;44.510;-123.270;2024-01-10T10:06:25;100165.00;;;3.27;100.00
64551;BME280;74341;44.510;-123.270;2024-01-10T10:08:51;100172.38;;;3.25;100.00
64551;BME280;74341;44.510;-123.270;2024-01-10T10:11:18;100185.03;;;3.24;100.00
64551;BME280;74341;44.510;-123.270;2024-01-10T10:13:44;100180.91;;;3.20;100.00
64551;BME280;74341;44.510;-123.270;2024-01-10T10:16:11;100174.09;;;3.16;100.00
64551;BME280;74341;44.510;-123.270;2024-01-10T10:18:38;100180.34;;;3.07;100.00
64551;BME280;74341;44.510;-123.270;2024-01-10T10:21:13;100185.59;;;2.99;100.00
64551;BME280;74341;44.510;-123.270;2024-01-10T10:23:42;100175.91;;;2.87;100.00
64551;BME280;74341;44.510;-123.270;2024-01-10T10:26:16;100161.84;;;2.83;100.00
64551;BME280;74341;44.510;-123.270;2024-01-10T10:28:47;100171.34;;;2.77;100.00
64551;BME280;74341;44.510;-123.270;2024-01-10T10:31:14;100191.09;;;2.78;100.00
64551;BME280;74341;44.510;-123.270;2024-01-10T10:33:42;100187.13;;;2.72;100.00
64551;BME280;74341;44.510;-123.270;2024-01-10T10:36:13;100187.38;;;2.69;100.00
64551;BME280;74341;44.510;-123.270;2024-01-10T10:38:40;100182.97;;;2.68;100.00
64551;BME280;74341;44.510;-123.270;2024-01-10T10:41:07;100191.06;;;2.68;100.00
64551;BME280;74341;44.510;-123.270;2024-01-10T10:43:37;100189.50;;;2.65;100.00
64551;BME280;74341;44.510;-123.270;2024-01-10T10:46:05;100202.88;;;2.67;100.00
64551;BME280;74341;44.510;-123.270;2024-01-10T10:48:35;100197.47;;;2.67;100.00
64551;BME280;74341;44.510;-123.270;2024-01-10T10:51:05;100214.38;;;2.69;100.00
64551;BME280;74341;44.510;-123.270;2024-01-10T10:53:35;100203.56;;;2.69;100.00
64551;BME280;74341;44.510;-123.270;2024-01-10T10:56:06;100200.03;;;2.69;100.00
64551;BME280;74341;44.510;-123.270;2024-01-10T10:58:46;100193.91;;;2.66;100.00
64551;BME280;74341;44.510;-123.270;2024-01-10T11:01:13;100177.84;;;2.65;100.00
64551;BME280;74341;44.510;-123.270;2024-01-10T11:03:41;100183.53;;;2.62;100.00
64551;BME280;74341;44.510;-123.270;2024-01-10T11:06:13;100198.13;;;2.59;100.00
64551;BME280;74341;44.510;-123.270;2024-01-10T11:08:50;100203.53;;;2.59;100.00
64551;BME280;74341;44.510;-123.270;2024-01-10T11:14:04;100222.88;;;2.64;100.00
64551;BME280;74341;44.510;-123.270;2024-01-10T11:16:41;100221.88;;;2.65;100.00
64551;BME280;74341;44.510;-123.270;2024-01-10T11:24:18;100220.66;;;2.79;100.00
64551;BME280;74341;44.510;-123.270;2024-01-10T11:26:45;100216.81;;;2.82;100.00
64551;BME280;74341;44.510;-123.270;2024-01-10T11:29:12;100202.34;;;2.83;100.00
64551;BME280;74341;44.510;-123.270;2024-01-10T11:31:39;100201.06;;;2.77;100.00
64551;BME280;74341;44.510;-123.270;2024-01-10T11:34:05;100202.03;;;2.66;100.00
64551;BME280;74341;44.510;-123.270;2024-01-10T11:36:32;100193.34;;;2.63;100.00
64551;BME280;74341;44.510;-123.270;2024-01-10T11:39:05;100187.50;;;2.58;100.00
64551;BME280;74341;44.510;-123.270;2024-01-10T11:41:33;100194.28;;;2.52;100.00
64551;BME280;74341;44.510;-123.270;2024-01-10T11:49:18;100181.84;;;2.30;100.00
64551;BME280;74341;44.510;-123.270;2024-01-10T11:51:46;100180.41;;;2.26;100.00
64551;BME280;74341;44.510;-123.270;2024-01-10T11:54:49;100188.78;;;2.23;100.00
64551;BME280;74341;44.510;-123.270;2024-01-10T11:57:20;100197.25;;;2.18;100.00
64551;BME280;74341;44.510;-123.270;2024-01-10T11:59:50;100200.63;;;2.11;100.00
64551;BME280;74341;44.510;-123.270;2024-01-10T12:02:16;100195.03;;;2.02;100.00
64551;BME280;74341;44.510;-123.270;2024-01-10T12:04:43;100203.69;;;1.96;100.00
64551;BME280;74341;44.510;-123.270;2024-01-10T12:07:12;100197.56;;;1.94;100.00
64551;BME280;74341;44.510;-123.270;2024-01-10T12:09:39;100201.13;;;1.95;100.00
64551;BME280;74341;44.510;-123.270;2024-01-10T12:12:06;100203.94;;;1.93;100.00
64551;BME280;74341;44.510;-123.270;2024-01-10T12:14:34;100203.22;;;1.91;100.00
64551;BME280;74341;44.510;-123.270;2024-01-10T12:17:01;100213.16;;;1.90;100.00
64551;BME280;74341;44.510;-123.270;2024-01-10T12:19:30;100208.63;;;1.91;100.00
64551;BME280;74341;44.510;-123.270;2024-01-10T12:21:57;100224.91;;;1.89;100.00
64551;BME280;74341;44.510;-123.270;2024-01-10T12:24:23;100237.69;;;1.87;100.00
64551;BME280;74341;44.510;-123.270;2024-01-10T12:26:53;100245.38;;;1.92;100.00
64551;BME280;74341;44.510;-123.270;2024-01-10T12:29:21;100240.63;;;2.05;100.00
64551;BME280;74341;44.510;-123.270;2024-01-10T12:31:48;100224.06;;;2.10;100.00
64551;BME280;74341;44.510;-123.270;2024-01-10T12:34:15;100182.59;;;2.11;100.00
64551;BME280;74341;44.510;-123.270;2024-01-10T12:36:41;100184.31;;;2.12;100.00